KMOD/MOD METAR and TAF weather

Enter ICAO airport designator
Station Type Date Time Source
KMOD METAR 2022/01/19 19:53 UTC NOAA

KMOD 191953Z 32008KT 10SM CLR 14/08 A3023 RMK AO2 SLP237 T01390083


Station Type Date Time Source
KMOD Decoded METAR 2022/01/19 19:53 UTC NOAA

MODESTO CITY CO SHAM FLD, CA, United States (KMOD) 37-37N 120-57W 29M
Jan 19, 2022 - 02:53 PM EST / 2022.01.19 1953 UTC
Wind: from the NW (320 degrees) at 9 MPH (8 KT):0
Visibility: 10 mile(s):0
Sky conditions: clear
Temperature: 57.0 F (13.9 C)
Dew Point: 46.9 F (8.3 C)
Relative Humidity: 68%
Pressure (altimeter): 30.23 in. Hg (1023 hPa)
ob: KMOD 191953Z 32008KT 10SM CLR 14/08 A3023 RMK AO2 SLP237 T01390083
cycle: 20

Station Type Date Time Source
KMOD TAF 2022/01/19 18:57 UTC NOAA

TAF COR KMOD 191752Z 1918/2018 32005KT 4SM BR SCT250
FM191900 32004KT P6SM SCT250
FM200900 VRB02KT 2SM BR SCT250
FM201500 VRB03KT 1/4SM FG OVC002

Example: see airport list